sensor_id;sensor_type;location;lat;lon;timestamp;P1;durP1;ratioP1;P2;durP2;ratioP2
38182;SDS011;23991;52.430;10.586;2023-06-19T00:00:15;8.13;;;5.10;;
38182;SDS011;23991;52.430;10.586;2023-06-19T00:02:41;5.68;;;4.80;;
38182;SDS011;23991;52.430;10.586;2023-06-19T00:05:08;7.95;;;5.50;;
38182;SDS011;23991;52.430;10.586;2023-06-19T00:07:35;7.40;;;5.32;;
38182;SDS011;23991;52.430;10.586;2023-06-19T00:10:01;8.10;;;5.20;;
38182;SDS011;23991;52.430;10.586;2023-06-19T00:12:27;7.88;;;5.30;;
38182;SDS011;23991;52.430;10.586;2023-06-19T00:14:53;8.10;;;5.90;;
38182;SDS011;23991;52.430;10.586;2023-06-19T00:17:18;6.55;;;5.00;;
38182;SDS011;23991;52.430;10.586;2023-06-19T00:19:44;8.80;;;5.30;;
38182;SDS011;23991;52.430;10.586;2023-06-19T00:22:09;8.05;;;5.60;;
38182;SDS011;23991;52.430;10.586;2023-06-19T00:24:35;8.65;;;5.55;;
38182;SDS011;23991;52.430;10.586;2023-06-19T00:27:01;7.10;;;5.13;;
38182;SDS011;23991;52.430;10.586;2023-06-19T00:29:28;8.38;;;5.63;;
38182;SDS011;23991;52.430;10.586;2023-06-19T00:31:54;6.40;;;5.47;;
38182;SDS011;23991;52.430;10.586;2023-06-19T00:34:19;7.10;;;5.30;;
38182;SDS011;23991;52.430;10.586;2023-06-19T00:36:45;7.60;;;5.72;;
38182;SDS011;23991;52.430;10.586;2023-06-19T00:39:11;6.55;;;5.57;;
38182;SDS011;23991;52.430;10.586;2023-06-19T00:41:37;8.68;;;5.10;;
38182;SDS011;23991;52.430;10.586;2023-06-19T00:44:03;5.93;;;5.30;;
38182;SDS011;23991;52.430;10.586;2023-06-19T00:46:28;6.57;;;5.60;;
38182;SDS011;23991;52.430;10.586;2023-06-19T00:48:55;6.40;;;5.63;;
38182;SDS011;23991;52.430;10.586;2023-06-19T00:51:20;8.32;;;5.85;;
38182;SDS011;23991;52.430;10.586;2023-06-19T00:53:46;8.82;;;5.95;;
38182;SDS011;23991;52.430;10.586;2023-06-19T00:56:12;7.90;;;5.05;;
38182;SDS011;23991;52.430;10.586;2023-06-19T00:58:38;6.30;;;5.32;;
38182;SDS011;23991;52.430;10.586;2023-06-19T01:01:03;6.90;;;5.20;;
38182;SDS011;23991;52.430;10.586;2023-06-19T01:03:30;7.60;;;5.53;;
38182;SDS011;23991;52.430;10.586;2023-06-19T01:05:55;6.47;;;5.43;;
38182;SDS011;23991;52.430;10.586;2023-06-19T01:11:10;7.15;;;5.38;;
38182;SDS011;23991;52.430;10.586;2023-06-19T01:13:48;7.95;;;5.70;;
38182;SDS011;23991;52.430;10.586;2023-06-19T01:16:19;6.72;;;5.28;;
38182;SDS011;23991;52.430;10.586;2023-06-19T01:18:46;7.35;;;5.90;;
38182;SDS011;23991;52.430;10.586;2023-06-19T01:21:14;6.32;;;5.65;;
38182;SDS011;23991;52.430;10.586;2023-06-19T01:23:41;9.88;;;5.50;;
38182;SDS011;23991;52.430;10.586;2023-06-19T01:26:07;6.88;;;5.57;;
38182;SDS011;23991;52.430;10.586;2023-06-19T01:28:34;6.57;;;5.40;;
38182;SDS011;23991;52.430;10.586;2023-06-19T01:31:02;6.83;;;5.60;;
38182;SDS011;23991;52.430;10.586;2023-06-19T01:33:58;10.90;;;6.22;;
38182;SDS011;23991;52.430;10.586;2023-06-19T01:36:27;8.35;;;5.95;;
38182;SDS011;23991;52.430;10.586;2023-06-19T01:38:54;8.45;;;6.00;;
38182;SDS011;23991;52.430;10.586;2023-06-19T01:41:22;8.45;;;5.88;;
38182;SDS011;23991;52.430;10.586;2023-06-19T01:43:49;10.38;;;6.72;;
38182;SDS011;23991;52.430;10.586;2023-06-19T01:46:15;8.75;;;5.72;;
38182;SDS011;23991;52.430;10.586;2023-06-19T01:48:41;8.43;;;5.68;;
38182;SDS011;23991;52.430;10.586;2023-06-19T01:51:06;6.75;;;6.05;;
38182;SDS011;23991;52.430;10.586;2023-06-19T01:53:32;9.93;;;5.40;;
38182;SDS011;23991;52.430;10.586;2023-06-19T01:55:59;6.82;;;5.30;;
38182;SDS011;23991;52.430;10.586;2023-06-19T01:58:25;6.88;;;5.75;;
38182;SDS011;23991;52.430;10.586;2023-06-19T02:00:51;7.30;;;5.78;;
38182;SDS011;23991;52.430;10.586;2023-06-19T02:03:17;7.07;;;5.95;;
38182;SDS011;23991;52.430;10.586;2023-06-19T02:05:42;7.30;;;5.47;;
38182;SDS011;23991;52.430;10.586;2023-06-19T02:08:08;8.45;;;6.30;;
38182;SDS011;23991;52.430;10.586;2023-06-19T02:10:34;7.03;;;5.60;;
38182;SDS011;23991;52.430;10.586;2023-06-19T02:13:00;7.03;;;5.97;;
38182;SDS011;23991;52.430;10.586;2023-06-19T02:15:25;6.22;;;5.55;;
38182;SDS011;23991;52.430;10.586;2023-06-19T02:17:51;6.20;;;5.25;;
38182;SDS011;23991;52.430;10.586;2023-06-19T02:20:20;7.25;;;5.53;;
38182;SDS011;23991;52.430;10.586;2023-06-19T02:22:46;6.88;;;5.15;;
38182;SDS011;23991;52.430;10.586;2023-06-19T02:25:11;7.70;;;5.78;;
38182;SDS011;23991;52.430;10.586;2023-06-19T02:27:37;7.10;;;6.18;;
38182;SDS011;23991;52.430;10.586;2023-06-19T02:30:03;6.93;;;5.25;;
38182;SDS011;23991;52.430;10.586;2023-06-19T02:32:30;7.03;;;5.43;;
38182;SDS011;23991;52.430;10.586;2023-06-19T02:34:55;7.25;;;5.45;;
38182;SDS011;23991;52.430;10.586;2023-06-19T02:37:21;6.68;;;5.28;;
38182;SDS011;23991;52.430;10.586;2023-06-19T02:39:46;6.65;;;5.30;;
38182;SDS011;23991;52.430;10.586;2023-06-19T02:42:12;7.35;;;5.35;;
38182;SDS011;23991;52.430;10.586;2023-06-19T02:44:38;6.97;;;5.70;;
38182;SDS011;23991;52.430;10.586;2023-06-19T02:47:03;6.25;;;5.60;;
38182;SDS011;23991;52.430;10.586;2023-06-19T02:49:29;7.03;;;5.72;;
38182;SDS011;23991;52.430;10.586;2023-06-19T02:51:55;6.28;;;5.32;;
38182;SDS011;23991;52.430;10.586;2023-06-19T02:54:21;8.45;;;6.07;;
38182;SDS011;23991;52.430;10.586;2023-06-19T02:56:46;9.60;;;5.68;;
38182;SDS011;23991;52.430;10.586;2023-06-19T02:59:12;6.25;;;5.47;;
38182;SDS011;23991;52.430;10.586;2023-06-19T03:01:37;6.90;;;5.47;;
38182;SDS011;23991;52.430;10.586;2023-06-19T03:04:03;6.60;;;5.65;;
38182;SDS011;23991;52.430;10.586;2023-06-19T03:06:29;6.75;;;5.38;;
38182;SDS011;23991;52.430;10.586;2023-06-19T03:08:55;5.68;;;5.10;;
38182;SDS011;23991;52.430;10.586;2023-06-19T03:11:21;6.28;;;5.28;;
38182;SDS011;23991;52.430;10.586;2023-06-19T03:13:50;6.43;;;5.70;;
38182;SDS011;23991;52.430;10.586;2023-06-19T03:16:17;8.93;;;5.40;;
38182;SDS011;23991;52.430;10.586;2023-06-19T03:18:44;7.10;;;5.18;;
38182;SDS011;23991;52.430;10.586;2023-06-19T03:21:10;6.15;;;5.47;;
38182;SDS011;23991;52.430;10.586;2023-06-19T03:23:36;6.60;;;5.65;;
38182;SDS011;23991;52.430;10.586;2023-06-19T03:26:02;8.13;;;6.28;;
38182;SDS011;23991;52.430;10.586;2023-06-19T03:28:28;8.13;;;5.40;;
38182;SDS011;23991;52.430;10.586;2023-06-19T03:30:54;7.13;;;5.28;;
38182;SDS011;23991;52.430;10.586;2023-06-19T03:33:21;6.43;;;5.63;;
38182;SDS011;23991;52.430;10.586;2023-06-19T03:35:47;9.10;;;5.32;;
38182;SDS011;23991;52.430;10.586;2023-06-19T03:38:13;10.23;;;5.43;;
38182;SDS011;23991;52.430;10.586;2023-06-19T03:40:38;7.57;;;5.55;;
38182;SDS011;23991;52.430;10.586;2023-06-19T03:43:04;7.32;;;6.03;;
38182;SDS011;23991;52.430;10.586;2023-06-19T03:45:30;7.82;;;5.30;;
38182;SDS011;23991;52.430;10.586;2023-06-19T03:47:56;7.00;;;5.45;;
38182;SDS011;23991;52.430;10.586;2023-06-19T03:50:22;6.47;;;4.90;;
38182;SDS011;23991;52.430;10.586;2023-06-19T03:52:47;6.38;;;5.55;;
38182;SDS011;23991;52.430;10.586;2023-06-19T03:55:13;7.03;;;5.40;;
38182;SDS011;23991;52.430;10.586;2023-06-19T03:57:38;11.50;;;5.57;;
38182;SDS011;23991;52.430;10.586;2023-06-19T04:00:04;6.10;;;5.28;;
38182;SDS011;23991;52.430;10.586;2023-06-19T04:02:36;7.32;;;6.20;;
38182;SDS011;23991;52.430;10.586;2023-06-19T04:05:02;6.90;;;5.00;;
38182;SDS011;23991;52.430;10.586;2023-06-19T04:07:30;6.53;;;5.43;;
38182;SDS011;23991;52.430;10.586;2023-06-19T04:09:56;6.55;;;5.32;;
38182;SDS011;23991;52.430;10.586;2023-06-19T04:12:22;7.28;;;5.07;;
38182;SDS011;23991;52.430;10.586;2023-06-19T04:14:48;7.38;;;5.82;;
38182;SDS011;23991;52.430;10.586;2023-06-19T04:17:13;5.93;;;5.15;;
38182;SDS011;23991;52.430;10.586;2023-06-19T04:19:40;6.82;;;5.38;;
38182;SDS011;23991;52.430;10.586;2023-06-19T04:22:06;8.13;;;6.43;;
38182;SDS011;23991;52.430;10.586;2023-06-19T04:24:31;9.00;;;5.78;;
38182;SDS011;23991;52.430;10.586;2023-06-19T04:26:57;9.13;;;5.70;;
38182;SDS011;23991;52.430;10.586;2023-06-19T04:29:22;7.70;;;5.55;;
38182;SDS011;23991;52.430;10.586;2023-06-19T04:31:48;7.90;;;5.32;;
38182;SDS011;23991;52.430;10.586;2023-06-19T04:36:46;6.88;;;5.28;;
38182;SDS011;23991;52.430;10.586;2023-06-19T04:39:12;7.90;;;6.22;;
38182;SDS011;23991;52.430;10.586;2023-06-19T04:41:38;7.13;;;5.80;;
38182;SDS011;23991;52.430;10.586;2023-06-19T04:44:06;8.02;;;5.38;;
38182;SDS011;23991;52.430;10.586;2023-06-19T04:46:32;15.25;;;6.18;;
38182;SDS011;23991;52.430;10.586;2023-06-19T04:48:58;6.30;;;5.53;;
38182;SDS011;23991;52.430;10.586;2023-06-19T04:51:24;9.40;;;6.00;;
38182;SDS011;23991;52.430;10.586;2023-06-19T04:53:51;7.22;;;5.28;;
38182;SDS011;23991;52.430;10.586;2023-06-19T04:56:19;6.55;;;5.85;;
38182;SDS011;23991;52.430;10.586;2023-06-19T04:58:45;7.13;;;5.80;;
38182;SDS011;23991;52.430;10.586;2023-06-19T05:01:12;8.63;;;5.72;;
38182;SDS011;23991;52.430;10.586;2023-06-19T05:03:39;8.27;;;5.85;;
38182;SDS011;23991;52.430;10.586;2023-06-19T05:06:04;8.93;;;6.20;;
38182;SDS011;23991;52.430;10.586;2023-06-19T05:08:33;7.80;;;6.10;;
38182;SDS011;23991;52.430;10.586;2023-06-19T05:11:02;8.50;;;5.57;;
38182;SDS011;23991;52.430;10.586;2023-06-19T05:13:30;7.47;;;5.82;;
38182;SDS011;23991;52.430;10.586;2023-06-19T05:15:56;8.00;;;5.68;;
38182;SDS011;23991;52.430;10.586;2023-06-19T05:18:22;6.35;;;5.30;;
38182;SDS011;23991;52.430;10.586;2023-06-19T05:20:47;8.18;;;5.45;;
38182;SDS011;23991;52.430;10.586;2023-06-19T05:23:13;9.23;;;5.60;;
38182;SDS011;23991;52.430;10.586;2023-06-19T05:25:41;8.18;;;6.55;;
38182;SDS011;23991;52.430;10.586;2023-06-19T05:28:08;8.10;;;5.65;;
38182;SDS011;23991;52.430;10.586;2023-06-19T05:30:34;9.02;;;5.68;;
38182;SDS011;23991;52.430;10.586;2023-06-19T05:33:00;6.85;;;5.43;;
38182;SDS011;23991;52.430;10.586;2023-06-19T05:35:25;6.10;;;5.28;;
38182;SDS011;23991;52.430;10.586;2023-06-19T05:37:51;6.00;;;5.40;;
38182;SDS011;23991;52.430;10.586;2023-06-19T05:40:17;5.43;;;4.82;;
38182;SDS011;23991;52.430;10.586;2023-06-19T05:42:42;6.82;;;5.45;;
38182;SDS011;23991;52.430;10.586;2023-06-19T05:45:08;7.28;;;5.78;;
38182;SDS011;23991;52.430;10.586;2023-06-19T05:47:34;7.50;;;5.47;;
38182;SDS011;23991;52.430;10.586;2023-06-19T05:50:00;7.13;;;5.78;;
38182;SDS011;23991;52.430;10.586;2023-06-19T05:52:25;8.60;;;6.07;;
38182;SDS011;23991;52.430;10.586;2023-06-19T05:54:51;6.68;;;5.70;;
38182;SDS011;23991;52.430;10.586;2023-06-19T05:57:18;6.63;;;5.35;;
38182;SDS011;23991;52.430;10.586;2023-06-19T05:59:48;7.43;;;5.88;;
38182;SDS011;23991;52.430;10.586;2023-06-19T06:02:18;8.40;;;5.80;;
38182;SDS011;23991;52.430;10.586;2023-06-19T06:04:44;6.68;;;5.65;;
38182;SDS011;23991;52.430;10.586;2023-06-19T06:07:10;7.38;;;6.32;;
38182;SDS011;23991;52.430;10.586;2023-06-19T06:09:36;8.50;;;5.90;;
38182;SDS011;23991;52.430;10.586;2023-06-19T06:12:02;8.18;;;5.53;;
38182;SDS011;23991;52.430;10.586;2023-06-19T06:14:27;6.88;;;5.50;;
38182;SDS011;23991;52.430;10.586;2023-06-19T06:16:53;6.47;;;5.43;;
38182;SDS011;23991;52.430;10.586;2023-06-19T06:19:22;8.68;;;5.10;;
38182;SDS011;23991;52.430;10.586;2023-06-19T06:21:48;8.10;;;5.70;;
38182;SDS011;23991;52.430;10.586;2023-06-19T06:24:14;6.57;;;5.50;;
38182;SDS011;23991;52.430;10.586;2023-06-19T06:26:39;7.65;;;5.72;;
38182;SDS011;23991;52.430;10.586;2023-06-19T06:29:05;7.03;;;5.72;;
38182;SDS011;23991;52.430;10.586;2023-06-19T06:31:31;6.32;;;5.45;;
38182;SDS011;23991;52.430;10.586;2023-06-19T06:33:56;9.25;;;5.72;;
38182;SDS011;23991;52.430;10.586;2023-06-19T06:36:22;6.65;;;5.47;;
38182;SDS011;23991;52.430;10.586;2023-06-19T06:38:47;8.73;;;5.60;;
38182;SDS011;23991;52.430;10.586;2023-06-19T06:41:13;5.85;;;5.25;;
38182;SDS011;23991;52.430;10.586;2023-06-19T07:36:21;8.02;;;6.15;;
38182;SDS011;23991;52.430;10.586;2023-06-19T07:38:46;8.15;;;6.38;;
38182;SDS011;23991;52.430;10.586;2023-06-19T07:41:12;9.60;;;6.20;;
38182;SDS011;23991;52.430;10.586;2023-06-19T07:43:37;12.93;;;6.43;;
38182;SDS011;23991;52.430;10.586;2023-06-19T07:46:03;7.45;;;6.10;;
38182;SDS011;23991;52.430;10.586;2023-06-19T07:48:29;7.30;;;6.00;;
38182;SDS011;23991;52.430;10.586;2023-06-19T07:50:55;8.18;;;6.30;;
38182;SDS011;23991;52.430;10.586;2023-06-19T07:53:20;10.57;;;5.57;;
38182;SDS011;23991;52.430;10.586;2023-06-19T07:55:46;8.40;;;5.50;;
38182;SDS011;23991;52.430;10.586;2023-06-19T07:58:12;9.32;;;5.93;;
38182;SDS011;23991;52.430;10.586;2023-06-19T08:00:37;8.48;;;5.40;;
38182;SDS011;23991;52.430;10.586;2023-06-19T08:03:03;8.30;;;6.28;;
38182;SDS011;23991;52.430;10.586;2023-06-19T08:05:30;6.90;;;5.90;;
38182;SDS011;23991;52.430;10.586;2023-06-19T08:07:56;8.85;;;5.50;;
38182;SDS011;23991;52.430;10.586;2023-06-19T08:10:21;8.32;;;5.72;;
38182;SDS011;23991;52.430;10.586;2023-06-19T08:12:47;7.60;;;5.45;;
38182;SDS011;23991;52.430;10.586;2023-06-19T08:15:13;8.80;;;5.30;;
38182;SDS011;23991;52.430;10.586;2023-06-19T08:17:38;8.15;;;6.15;;
38182;SDS011;23991;52.430;10.586;2023-06-19T08:20:05;9.85;;;6.20;;
38182;SDS011;23991;52.430;10.586;2023-06-19T08:22:32;7.20;;;5.43;;
38182;SDS011;23991;52.430;10.586;2023-06-19T08:24:57;6.75;;;5.88;;
38182;SDS011;23991;52.430;10.586;2023-06-19T08:27:23;9.15;;;5.80;;
38182;SDS011;23991;52.430;10.586;2023-06-19T08:29:48;7.60;;;5.88;;
38182;SDS011;23991;52.430;10.586;2023-06-19T08:32:14;9.00;;;5.57;;
38182;SDS011;23991;52.430;10.586;2023-06-19T08:34:39;6.57;;;5.35;;
38182;SDS011;23991;52.430;10.586;2023-06-19T08:37:06;5.85;;;5.25;;
38182;SDS011;23991;52.430;10.586;2023-06-19T08:39:32;10.63;;;5.88;;
38182;SDS011;23991;52.430;10.586;2023-06-19T08:41:57;7.30;;;5.47;;
38182;SDS011;23991;52.430;10.586;2023-06-19T08:44:23;7.05;;;5.63;;
38182;SDS011;23991;52.430;10.586;2023-06-19T08:46:48;9.13;;;6.38;;
38182;SDS011;23991;52.430;10.586;2023-06-19T08:49:14;7.72;;;6.20;;
38182;SDS011;23991;52.430;10.586;2023-06-19T08:51:40;6.57;;;5.60;;
38182;SDS011;23991;52.430;10.586;2023-06-19T08:54:06;6.57;;;5.85;;
38182;SDS011;23991;52.430;10.586;2023-06-19T08:56:33;7.50;;;5.68;;
38182;SDS011;23991;52.430;10.586;2023-06-19T08:59:10;8.00;;;5.78;;
38182;SDS011;23991;52.430;10.586;2023-06-19T09:01:37;6.03;;;5.43;;
38182;SDS011;23991;52.430;10.586;2023-06-19T09:04:09;7.10;;;6.40;;
38182;SDS011;23991;52.430;10.586;2023-06-19T09:06:44;9.60;;;5.65;;
38182;SDS011;23991;52.430;10.586;2023-06-19T09:09:15;6.85;;;5.68;;
38182;SDS011;23991;52.430;10.586;2023-06-19T09:11:41;8.13;;;5.72;;
38182;SDS011;23991;52.430;10.586;2023-06-19T09:14:10;7.40;;;5.30;;
38182;SDS011;23991;52.430;10.586;2023-06-19T09:16:39;6.65;;;5.70;;
38182;SDS011;23991;52.430;10.586;2023-06-19T09:19:06;6.00;;;5.05;;
38182;SDS011;23991;52.430;10.586;2023-06-19T09:21:32;10.00;;;6.28;;
38182;SDS011;23991;52.430;10.586;2023-06-19T09:24:07;11.70;;;6.25;;
38182;SDS011;23991;52.430;10.586;2023-06-19T09:26:34;6.15;;;5.55;;
38182;SDS011;23991;52.430;10.586;2023-06-19T09:29:15;6.10;;;5.50;;
38182;SDS011;23991;52.430;10.586;2023-06-19T09:31:41;6.45;;;5.70;;
38182;SDS011;23991;52.430;10.586;2023-06-19T09:34:07;6.78;;;5.53;;
38182;SDS011;23991;52.430;10.586;2023-06-19T09:36:33;6.90;;;6.00;;
38182;SDS011;23991;52.430;10.586;2023-06-19T09:39:01;6.15;;;5.55;;
38182;SDS011;23991;52.430;10.586;2023-06-19T09:41:28;5.43;;;4.90;;
38182;SDS011;23991;52.430;10.586;2023-06-19T09:43:55;6.57;;;5.63;;
38182;SDS011;23991;52.430;10.586;2023-06-19T09:46:31;6.32;;;5.38;;
38182;SDS011;23991;52.430;10.586;2023-06-19T09:49:00;6.70;;;5.75;;
38182;SDS011;23991;52.430;10.586;2023-06-19T09:51:33;6.75;;;6.00;;
38182;SDS011;23991;52.430;10.586;2023-06-19T09:54:06;9.07;;;6.20;;
38182;SDS011;23991;52.430;10.586;2023-06-19T09:56:32;7.28;;;6.57;;
38182;SDS011;23991;52.430;10.586;2023-06-19T09:58:59;6.32;;;5.65;;
38182;SDS011;23991;52.430;10.586;2023-06-19T10:01:26;7.40;;;6.07;;
38182;SDS011;23991;52.430;10.586;2023-06-19T10:04:01;6.90;;;5.85;;
38182;SDS011;23991;52.430;10.586;2023-06-19T10:06:28;7.00;;;6.10;;
38182;SDS011;23991;52.430;10.586;2023-06-19T10:08:55;6.57;;;5.88;;
38182;SDS011;23991;52.430;10.586;2023-06-19T10:11:20;6.55;;;5.78;;
38182;SDS011;23991;52.430;10.586;2023-06-19T10:13:46;6.38;;;5.68;;
38182;SDS011;23991;52.430;10.586;2023-06-19T10:16:21;6.88;;;5.80;;
38182;SDS011;23991;52.430;10.586;2023-06-19T10:18:48;6.43;;;5.32;;
38182;SDS011;23991;52.430;10.586;2023-06-19T10:21:17;6.32;;;5.72;;
38182;SDS011;23991;52.430;10.586;2023-06-19T10:23:51;6.55;;;5.85;;
38182;SDS011;23991;52.430;10.586;2023-06-19T10:26:18;7.03;;;6.28;;
38182;SDS011;23991;52.430;10.586;2023-06-19T10:28:46;6.03;;;5.43;;
38182;SDS011;23991;52.430;10.586;2023-06-19T10:33:43;5.53;;;4.83;;
38182;SDS011;23991;52.430;10.586;2023-06-19T10:36:19;5.95;;;5.35;;
38182;SDS011;23991;52.430;10.586;2023-06-19T10:38:47;7.22;;;5.85;;
38182;SDS011;23991;52.430;10.586;2023-06-19T10:41:16;6.00;;;5.40;;
38182;SDS011;23991;52.430;10.586;2023-06-19T10:43:52;5.82;;;5.22;;
38182;SDS011;23991;52.430;10.586;2023-06-19T10:46:23;5.55;;;5.05;;
38182;SDS011;23991;52.430;10.586;2023-06-19T10:48:49;6.38;;;5.60;;
38182;SDS011;23991;52.430;10.586;2023-06-19T10:51:19;5.80;;;4.88;;
38182;SDS011;23991;52.430;10.586;2023-06-19T10:53:45;7.07;;;5.10;;
38182;SDS011;23991;52.430;10.586;2023-06-19T10:56:10;5.70;;;5.10;;
38182;SDS011;23991;52.430;10.586;2023-06-19T10:58:36;5.85;;;5.25;;
38182;SDS011;23991;52.430;10.586;2023-06-19T11:01:01;6.05;;;5.45;;
38182;SDS011;23991;52.430;10.586;2023-06-19T11:03:28;6.88;;;5.10;;
38182;SDS011;23991;52.430;10.586;2023-06-19T11:05:53;6.75;;;5.28;;
38182;SDS011;23991;52.430;10.586;2023-06-19T11:08:20;8.05;;;5.65;;
38182;SDS011;23991;52.430;10.586;2023-06-19T11:10:47;6.07;;;5.47;;
38182;SDS011;23991;52.430;10.586;2023-06-19T11:13:18;7.40;;;5.35;;
38182;SDS011;23991;52.430;10.586;2023-06-19T11:15:45;6.72;;;5.20;;
38182;SDS011;23991;52.430;10.586;2023-06-19T11:18:14;6.55;;;5.20;;
38182;SDS011;23991;52.430;10.586;2023-06-19T11:23:15;6.28;;;5.20;;
38182;SDS011;23991;52.430;10.586;2023-06-19T11:25:41;7.38;;;4.85;;
38182;SDS011;23991;52.430;10.586;2023-06-19T11:28:11;6.22;;;5.05;;
38182;SDS011;23991;52.430;10.586;2023-06-19T11:30:38;7.72;;;5.28;;
38182;SDS011;23991;52.430;10.586;2023-06-19T11:33:14;7.65;;;4.95;;
38182;SDS011;23991;52.430;10.586;2023-06-19T11:35:41;6.53;;;5.75;;
38182;SDS011;23991;52.430;10.586;2023-06-19T11:38:16;5.53;;;4.93;;
38182;SDS011;23991;52.430;10.586;2023-06-19T11:40:42;6.60;;;4.95;;
38182;SDS011;23991;52.430;10.586;2023-06-19T11:43:08;7.63;;;5.35;;
38182;SDS011;23991;52.430;10.586;2023-06-19T11:45:44;5.93;;;5.38;;
38182;SDS011;23991;52.430;10.586;2023-06-19T11:48:10;6.13;;;5.45;;
38182;SDS011;23991;52.430;10.586;2023-06-19T11:50:37;5.88;;;5.28;;
38182;SDS011;23991;52.430;10.586;2023-06-19T11:53:03;6.63;;;5.25;;
38182;SDS011;23991;52.430;10.586;2023-06-19T11:55:29;8.48;;;5.13;;
38182;SDS011;23991;52.430;10.586;2023-06-19T11:57:54;7.13;;;5.20;;
38182;SDS011;23991;52.430;10.586;2023-06-19T12:00:20;5.75;;;5.15;;
38182;SDS011;23991;52.430;10.586;2023-06-19T12:02:45;5.80;;;5.20;;
38182;SDS011;23991;52.430;10.586;2023-06-19T12:05:12;8.88;;;6.30;;
38182;SDS011;23991;52.430;10.586;2023-06-19T12:07:39;8.15;;;5.22;;
38182;SDS011;23991;52.430;10.586;2023-06-19T12:10:04;6.13;;;5.50;;
38182;SDS011;23991;52.430;10.586;2023-06-19T12:12:36;5.75;;;5.22;;
38182;SDS011;23991;52.430;10.586;2023-06-19T12:15:03;6.10;;;5.38;;
38182;SDS011;23991;52.430;10.586;2023-06-19T12:17:30;8.63;;;5.10;;
38182;SDS011;23991;52.430;10.586;2023-06-19T12:19:56;6.28;;;5.68;;
38182;SDS011;23991;52.430;10.586;2023-06-19T12:22:22;6.22;;;5.20;;
38182;SDS011;23991;52.430;10.586;2023-06-19T12:24:47;5.53;;;4.93;;
38182;SDS011;23991;52.430;10.586;2023-06-19T12:27:13;5.60;;;5.10;;
38182;SDS011;23991;52.430;10.586;2023-06-19T12:29:39;5.22;;;4.72;;
38182;SDS011;23991;52.430;10.586;2023-06-19T12:32:04;10.93;;;5.63;;
38182;SDS011;23991;52.430;10.586;2023-06-19T12:34:30;6.07;;;4.65;;
38182;SDS011;23991;52.430;10.586;2023-06-19T12:36:56;5.63;;;4.38;;
38182;SDS011;23991;52.430;10.586;2023-06-19T12:39:24;5.10;;;4.53;;
38182;SDS011;23991;52.430;10.586;2023-06-19T12:41:51;5.03;;;4.55;;
38182;SDS011;23991;52.430;10.586;2023-06-19T12:44:16;5.00;;;4.50;;
38182;SDS011;23991;52.430;10.586;2023-06-19T12:46:42;8.40;;;5.03;;
38182;SDS011;23991;52.430;10.586;2023-06-19T12:49:08;4.80;;;4.40;;
38182;SDS011;23991;52.430;10.586;2023-06-19T12:51:33;5.40;;;4.90;;
38182;SDS011;23991;52.430;10.586;2023-06-19T12:53:59;5.15;;;4.53;;
38182;SDS011;23991;52.430;10.586;2023-06-19T12:56:24;5.10;;;4.40;;
38182;SDS011;23991;52.430;10.586;2023-06-19T12:58:50;4.53;;;4.13;;
38182;SDS011;23991;52.430;10.586;2023-06-19T13:01:16;4.93;;;4.22;;
38182;SDS011;23991;52.430;10.586;2023-06-19T13:03:41;5.20;;;4.38;;
38182;SDS011;23991;52.430;10.586;2023-06-19T13:06:07;4.95;;;4.13;;
38182;SDS011;23991;52.430;10.586;2023-06-19T13:08:32;5.10;;;4.55;;
38182;SDS011;23991;52.430;10.586;2023-06-19T13:10:58;6.43;;;4.60;;
38182;SDS011;23991;52.430;10.586;2023-06-19T13:13:24;5.78;;;4.38;;
38182;SDS011;23991;52.430;10.586;2023-06-19T13:15:49;5.95;;;4.72;;
38182;SDS011;23991;52.430;10.586;2023-06-19T13:18:15;4.95;;;4.43;;
38182;SDS011;23991;52.430;10.586;2023-06-19T13:20:40;5.78;;;4.20;;
38182;SDS011;23991;52.430;10.586;2023-06-19T13:23:06;7.72;;;4.30;;
38182;SDS011;23991;52.430;10.586;2023-06-19T13:25:31;4.78;;;4.18;;
38182;SDS011;23991;52.430;10.586;2023-06-19T13:27:57;4.90;;;4.38;;
38182;SDS011;23991;52.430;10.586;2023-06-19T13:30:23;4.68;;;4.18;;
38182;SDS011;23991;52.430;10.586;2023-06-19T13:32:49;5.63;;;3.95;;
38182;SDS011;23991;52.430;10.586;2023-06-19T13:35:14;4.63;;;4.22;;
38182;SDS011;23991;52.430;10.586;2023-06-19T13:37:40;10.60;;;4.28;;
38182;SDS011;23991;52.430;10.586;2023-06-19T13:40:05;5.05;;;4.25;;
38182;SDS011;23991;52.430;10.586;2023-06-19T13:42:32;4.63;;;4.13;;
38182;SDS011;23991;52.430;10.586;2023-06-19T13:45:00;5.28;;;4.05;;
38182;SDS011;23991;52.430;10.586;2023-06-19T13:47:26;3.92;;;3.58;;
38182;SDS011;23991;52.430;10.586;2023-06-19T13:49:52;5.75;;;4.00;;
38182;SDS011;23991;52.430;10.586;2023-06-19T13:52:18;4.65;;;3.75;;
38182;SDS011;23991;52.430;10.586;2023-06-19T13:54:43;4.72;;;4.25;;
38182;SDS011;23991;52.430;10.586;2023-06-19T13:57:09;3.80;;;3.40;;
38182;SDS011;23991;52.430;10.586;2023-06-19T13:59:35;5.25;;;3.90;;
38182;SDS011;23991;52.430;10.586;2023-06-19T14:02:01;3.72;;;3.05;;
38182;SDS011;23991;52.430;10.586;2023-06-19T14:04:26;3.60;;;3.13;;
38182;SDS011;23991;52.430;10.586;2023-06-19T14:06:52;3.15;;;2.80;;
38182;SDS011;23991;52.430;10.586;2023-06-19T14:09:19;3.30;;;3.00;;
38182;SDS011;23991;52.430;10.586;2023-06-19T14:11:45;4.43;;;2.95;;
38182;SDS011;23991;52.430;10.586;2023-06-19T14:14:11;3.88;;;3.17;;
38182;SDS011;23991;52.430;10.586;2023-06-19T14:16:36;3.47;;;2.85;;
38182;SDS011;23991;52.430;10.586;2023-06-19T14:19:02;3.42;;;2.70;;
38182;SDS011;23991;52.430;10.586;2023-06-19T14:21:27;3.60;;;2.80;;
38182;SDS011;23991;52.430;10.586;2023-06-19T14:23:53;3.00;;;2.63;;
38182;SDS011;23991;52.430;10.586;2023-06-19T14:26:19;4.00;;;2.70;;
38182;SDS011;23991;52.430;10.586;2023-06-19T14:28:45;4.00;;;2.67;;
38182;SDS011;23991;52.430;10.586;2023-06-19T14:31:10;3.95;;;2.67;;
38182;SDS011;23991;52.430;10.586;2023-06-19T14:33:36;3.17;;;2.47;;
38182;SDS011;23991;52.430;10.586;2023-06-19T14:36:02;3.40;;;2.35;;
38182;SDS011;23991;52.430;10.586;2023-06-19T14:38:29;5.28;;;2.70;;
38182;SDS011;23991;52.430;10.586;2023-06-19T14:40:58;3.47;;;2.70;;
38182;SDS011;23991;52.430;10.586;2023-06-19T14:43:24;5.43;;;2.65;;
38182;SDS011;23991;52.430;10.586;2023-06-19T14:45:50;5.38;;;2.78;;
38182;SDS011;23991;52.430;10.586;2023-06-19T14:48:15;4.85;;;2.80;;
38182;SDS011;23991;52.430;10.586;2023-06-19T14:50:42;3.67;;;2.70;;
38182;SDS011;23991;52.430;10.586;2023-06-19T14:53:08;3.80;;;2.63;;
38182;SDS011;23991;52.430;10.586;2023-06-19T14:55:33;3.83;;;2.55;;
38182;SDS011;23991;52.430;10.586;2023-06-19T14:57:59;3.13;;;2.78;;
38182;SDS011;23991;52.430;10.586;2023-06-19T15:00:25;4.82;;;2.70;;
38182;SDS011;23991;52.430;10.586;2023-06-19T15:02:50;3.58;;;2.53;;
38182;SDS011;23991;52.430;10.586;2023-06-19T15:05:16;6.15;;;2.70;;
38182;SDS011;23991;52.430;10.586;2023-06-19T15:07:41;5.38;;;3.00;;
38182;SDS011;23991;52.430;10.586;2023-06-19T15:10:07;4.70;;;2.72;;
38182;SDS011;23991;52.430;10.586;2023-06-19T15:12:33;5.80;;;3.10;;
38182;SDS011;23991;52.430;10.586;2023-06-19T15:14:59;3.85;;;2.67;;
38182;SDS011;23991;52.430;10.586;2023-06-19T15:17:25;4.05;;;2.80;;
38182;SDS011;23991;52.430;10.586;2023-06-19T15:19:51;3.30;;;2.67;;
38182;SDS011;23991;52.430;10.586;2023-06-19T15:22:17;5.03;;;2.60;;
38182;SDS011;23991;52.430;10.586;2023-06-19T15:24:42;3.33;;;2.85;;
38182;SDS011;23991;52.430;10.586;2023-06-19T15:27:08;6.80;;;3.35;;
38182;SDS011;23991;52.430;10.586;2023-06-19T15:29:33;3.58;;;2.70;;
38182;SDS011;23991;52.430;10.586;2023-06-19T15:32:00;3.45;;;2.70;;